Historyczne dane pomiarowe

Dodano dane terminowe – wersja testowa.

Dane z okresu 1951-2019

Wersja bazy: 1.34 [2019-03-16, lista zmian], aktualizacja planowana na 2019-04-15

Dane meteo z obszaru Polski uzyskane na podstawie danych udostępnionych przez Instytut Meteorologii i Gospodarki Wodnej – Państwowy Instytut Badawczy.

 

Wybierz Datę:    

       

TemperaturaWilgotnośćWiatrCiśnienieOpadyŚniegCzas trwania zjawisk
 Stacja t tx tn tng RH VA  wxwx mslp ppp RRR   cm mm wxwxwxwxwxwxwx
1987-08-14 13.6 18.0 8.4 7.4 95.8- 8.0 1.3---- 2.0------------
1987-08-13 13.2 20.8 3.2 1.6 75.3- 3.3 2.3---- 1.2------------
1987-08-12 12.9 18.0 4.8 2.5 75.0- 4.0 3.0---- 0.0------------
1987-08-11 12.9 18.3 8.4 7.1 78.3- 6.0 4.3---- 0.6------------
1987-08-10 13.6 16.7 11.8 11.9 93.0- 8.0 1.0---- 9.7------------
1987-08-09 14.6 21.5 9.7 7.9 83.0- 7.0 0.3---- 9.7------------
1987-08-08 13.2 20.7 3.7 2.0 68.5- 5.3 1.0---- 0.0------------
1987-08-07 12.3 18.5 6.2 5.0 77.5- 4.0 1.7---- 0.0------------
1987-08-06 11.1 15.0 9.7 8.3 88.8- 7.7 3.3---- 1.3------------
1987-08-05 12.1 16.2 8.1 6.4 86.5- 7.0 2.7---- 3.3------------
1987-08-04 11.6 17.5 8.4 7.4 85.8- 5.3 3.3---- 3.9------------
1987-08-03 13.7 18.4 8.9 7.0 77.5- 6.7 3.0---- 3.9------------
1987-08-02 13.6 18.2 10.4 8.1 76.3- 4.7 2.0---- 1.6------------
1987-08-01 15.3 17.5 13.9 13.4 88.3- 6.7 3.3---- 1.9------------
1987-07-31 15.0 18.2 12.6 12.2 85.3- 8.0 3.0---- 1.0------------
1987-07-30 15.8 23.0 10.9 10.4 87.8- 7.3 0.7---- 11.7------------
1987-07-29 13.5 17.6 9.9 7.4 77.5- 7.0 1.7---- 0.1------------
1987-07-28 13.8 17.0 12.1 11.3 80.5- 6.3 2.3---- 0.4------------
1987-07-27 12.6 16.8 9.9 8.4 75.5- 8.0 5.0---- 0.2------------
1987-07-26 13.2 17.5 8.5 6.9 71.0- 6.3 4.3---- 0.2------------
1987-07-25 14.7 20.2 11.4 13.1 83.3- 7.3 1.7---- 0.0------------
1987-07-24 18.0 23.4 12.9 11.9 78.0- 7.7 3.0---- 0.4------------
1987-07-23 18.1 24.2 13.2 12.9 89.0- 8.0 2.7---- 2.7------------
1987-07-22 19.0 23.5 15.4 14.4 83.0- 7.3 1.3---- 0.0------------
1987-07-21 18.0 22.6 13.3 11.9 88.0- 7.3 2.0---- 22.3------------
1987-07-20 19.1 23.5 15.4 14.9 80.0- 5.0 2.7---- 0.0------------
1987-07-19 18.9 21.5 15.1 13.0 89.3- 7.3 1.7---- 5.7------------
1987-07-18 19.4 23.7 16.6 14.9 87.0- 8.0 2.3---- 11.0------------
1987-07-17 21.2 26.7 15.9 15.4 67.8- 7.0 5.0---- 0.0------------
1987-07-16 18.9 26.3 12.7 10.4 69.8- 7.0 4.3---- 0.0------------
1987-07-15 17.2 23.6 7.2 6.2 64.8- 5.0 4.0---- 0.5------------
1987-07-14 16.8 22.5 6.9 5.1 70.5- 2.0 1.7---- 0.0------------
1987-07-13 14.9 18.4 10.4 8.7 74.5- 6.0 1.7---- 0.0------------
1987-07-12 17.0 21.5 14.9 14.4 89.5- 7.3 0.0---- 6.6------------
1987-07-11 14.9 18.8 10.4 8.5 89.5- 8.0 3.3---- 34.1------------
1987-07-10 13.9 17.6 8.4 8.9 75.3- 6.0 1.7---- 0.0------------
1987-07-09 16.9 20.5 14.9 13.9 73.0- 5.7 2.0---- 0.3------------
1987-07-08 20.5 29.4 12.3 10.9 75.5- 5.3 2.7---- 9.5------------
1987-07-07 20.7 29.1 8.1 6.9 59.0- 4.3 3.7---- 0.0------------
1987-07-06 18.7 27.1 6.9 8.7 62.3- 0.0 2.7---- 0.0------------
1987-07-05 17.0 24.5 5.9 3.0 65.0- 2.0 2.3---- 0.0------------
1987-07-04 16.7 22.5 9.6 7.9 65.0- 4.7 3.3---- 0.0------------
1987-07-03 17.8 23.7 8.4 5.0 62.5- 2.7 2.3---- 0.0------------
1987-07-02 17.8 22.5 10.4 7.4 67.0- 3.3 2.3---- 0.0------------
1987-07-01 22.0 29.1 17.4 14.9 82.0- 7.0 3.7---- 0.0------------
1987-06-30 25.5 32.1 17.2 17.0 70.3- 2.0 2.3---- 0.0------------
1987-06-29 20.5 27.6 11.1 9.2 80.8- 6.3 1.7---- 0.0------------
1987-06-28 18.1 21.3 13.9 11.7 74.3- 6.3 3.0---- 0.0------------
1987-06-27 17.2 21.5 12.5 10.2 71.0- 5.0 1.7---- 0.0------------
1987-06-26 16.3 21.8 7.2 4.6 72.0- 5.7 2.3---- 0.0------------
1987-06-25 13.9 16.6 11.9 8.7 78.5- 7.0 1.7---- 0.0------------
1987-06-24 14.3 18.3 10.5 8.1 73.8- 6.3 3.7---- 5.4------------
1987-06-23 12.8 18.3 5.9 4.1 89.8- 6.7 1.7---- 4.6------------
1987-06-22 14.8 18.0 11.9 10.7 79.0- 6.3 2.7---- 0.0------------
1987-06-21 15.3 22.0 9.6 7.4 86.3- 6.7 2.3---- 1.0------------
1987-06-20 15.5 22.0 6.7 3.6 70.5- 4.0 3.3---- 0.0------------
1987-06-19 12.8 17.2 8.9 7.2 73.8- 6.7 2.7---- 0.0------------
1987-06-18 9.7 14.5 5.9 1.6 87.8- 7.7 4.0---- 6.0------------
1987-06-17 12.2 15.5 9.8 7.9 67.0- 7.3 3.7---- 0.1------------
1987-06-16 10.5 18.0 8.4 7.2 92.5- 8.0 3.7---- 1.4------------
402.6 ms

 

Źródłem pochodzenia danych jest Instytut Meteorologii i Gospodarki Wodnej – Państwowy Instytut Badawczy. Dane Instytutu Meteorologii i Gospodarki Wodnej – Państwowego Instytutu Badawczego zostały przetworzone.

Dane źródłowe można odnaleźć na stronie https://dane.imgw.pl